PWSweather.com
Personal Weather Stations
Station Observations
KCTHAMDEN
Dunbar Hill, Hamden, CT 06514

Dunbar HillHamden, CT 06514

Lat: 41.365437, Lon: -72.956532

Elevation: 200

Station Type: Davis Vantage Pro2+

www.hamdenweather.com

High Low Average
Temperature 82.6°F28.1°C 66.1°F18.9°C 74.4°F23.6°C
Dew Point 79.2°F26.2°C 64.3°F17.9°C 72.4°F22.4°C
Winds 4.1 mph 6.6 kmh Calm Calm 1.0 mph SE1.6 kmh SE
Wind Gusts 11.0 mph17.7 kmh -- 2.0 mph3.2 kmh
Humidity 98% 82% 94%
Pressure 30.12 in1020.0 mb 30.00 in1015.9 mb -
Precipitation 0.56 in14.2 mm - -
Hour Temp Dew Point Humidity Winds Wind Gusts Pressure Precip Precip Rate Daily Precip Total
12:00 AM 66.6°F19.2°C 63.6°F17.6°C 90% Calm Calm -- 30.12 in1020.0 mb - 0.00 in0.0 mm 0.00 in0.0 mm
12:15 AM 66.3°F19.1°C 63.3°F17.4°C 90% Calm Calm -- 30.12 in1020.0 mb - 0.00 in0.0 mm 0.00 in0.0 mm
12:30 AM 66.1°F18.9°C 63.4°F17.4°C 91% Calm Calm -- 30.12 in1020.0 mb - 0.00 in0.0 mm 0.00 in0.0 mm
12:45 AM 65.9°F18.8°C 63.5°F17.5°C 92% Calm Calm -- 30.12 in1020.0 mb - 0.00 in0.0 mm 0.00 in0.0 mm
01:00 AM 66.1°F18.9°C 64.3°F17.9°C 94% Calm Calm 1.0 mph1.6 kmh 30.11 in1019.6 mb - 0.00 in0.0 mm 0.00 in0.0 mm
01:15 AM 66.2°F19.0°C 64.4°F18.0°C 94% Calm Calm -- 30.12 in1020.0 mb - 0.00 in0.0 mm 0.00 in0.0 mm
01:30 AM 66.3°F19.1°C 64.5°F18.1°C 94% Calm Calm -- 30.11 in1019.6 mb - 0.00 in0.0 mm 0.00 in0.0 mm
01:45 AM 66.3°F19.1°C 64.8°F18.2°C 95% Calm Calm -- 30.12 in1020.0 mb - 0.00 in0.0 mm 0.00 in0.0 mm
02:00 AM 66.4°F19.1°C 65.0°F18.3°C 95% Calm Calm -- 30.11 in1019.6 mb - 0.00 in0.0 mm 0.00 in0.0 mm
02:15 AM 66.6°F19.2°C 65.1°F18.4°C 95% Calm Calm -- 30.11 in1019.6 mb - 0.00 in0.0 mm 0.00 in0.0 mm
02:30 AM 66.8°F19.3°C 65.3°F18.5°C 95% Calm Calm -- 30.11 in1019.6 mb - 0.00 in0.0 mm 0.00 in0.0 mm
02:45 AM 67.0°F19.4°C 65.8°F18.8°C 96% Calm Calm -- 30.11 in1019.6 mb - 0.00 in0.0 mm 0.00 in0.0 mm
03:00 AM 67.1°F19.5°C 65.9°F18.8°C 96% Calm Calm -- 30.11 in1019.6 mb - 0.00 in0.0 mm 0.00 in0.0 mm
03:15 AM 67.3°F19.6°C 66.1°F18.9°C 96% Calm Calm -- 30.10 in1019.3 mb - 0.00 in0.0 mm 0.00 in0.0 mm
03:30 AM 67.4°F19.7°C 66.2°F19.0°C 96% Calm Calm -- 30.10 in1019.3 mb - 0.00 in0.0 mm 0.00 in0.0 mm
03:45 AM 67.6°F19.8°C 66.4°F19.1°C 96% Calm Calm -- 30.11 in1019.6 mb - 0.00 in0.0 mm 0.00 in0.0 mm
04:00 AM 67.7°F19.8°C 66.5°F19.2°C 96% Calm Calm -- 30.11 in1019.6 mb - 0.00 in0.0 mm 0.00 in0.0 mm
04:15 AM 67.9°F19.9°C 66.7°F19.3°C 96% Calm Calm -- 30.11 in1019.6 mb - 0.00 in0.0 mm 0.00 in0.0 mm
04:30 AM 68.1°F20.1°C 66.9°F19.4°C 96% Calm Calm -- 30.11 in1019.6 mb - 0.01 in0.3 mm 0.01 in0.3 mm
04:45 AM 68.2°F20.1°C 67.0°F19.4°C 96% Calm Calm -- 30.11 in1019.6 mb - 0.00 in0.0 mm 0.01 in0.3 mm
05:00 AM 68.3°F20.2°C 67.1°F19.5°C 96% Calm Calm -- 30.11 in1019.6 mb - 0.02 in0.5 mm 0.03 in0.8 mm
05:15 AM 68.4°F20.2°C 67.2°F19.6°C 96% Calm Calm -- 30.11 in1019.6 mb - 0.00 in0.0 mm 0.03 in0.8 mm
05:30 AM 68.4°F20.2°C 67.2°F19.6°C 96% Calm Calm -- 30.11 in1019.6 mb - 0.00 in0.0 mm 0.03 in0.8 mm
05:45 AM 68.4°F20.2°C 67.2°F19.6°C 96% Calm Calm -- 30.12 in1020.0 mb - 0.00 in0.0 mm 0.03 in0.8 mm
06:00 AM 68.5°F20.3°C 67.3°F19.6°C 96% Calm Calm -- 30.12 in1020.0 mb - 0.00 in0.0 mm 0.03 in0.8 mm
06:15 AM 68.6°F20.3°C 67.4°F19.7°C 96% Calm Calm -- 30.12 in1020.0 mb - 0.01 in0.3 mm 0.04 in1.0 mm
06:30 AM 68.7°F20.4°C 67.5°F19.7°C 96% Calm Calm -- 30.12 in1020.0 mb - 0.00 in0.0 mm 0.04 in1.0 mm
06:45 AM 68.8°F20.4°C 67.6°F19.8°C 96% Calm Calm -- 30.12 in1020.0 mb - 0.00 in0.0 mm 0.04 in1.0 mm
07:00 AM 69.0°F20.6°C 68.1°F20.1°C 97% Calm Calm -- 30.11 in1019.6 mb - 0.00 in0.0 mm 0.04 in1.0 mm
07:15 AM 69.2°F20.7°C 68.3°F20.2°C 97% Calm Calm -- 30.11 in1019.6 mb - 0.00 in0.0 mm 0.04 in1.0 mm
07:30 AM 69.4°F20.8°C 68.5°F20.3°C 97% Calm Calm -- 30.11 in1019.6 mb - 0.00 in0.0 mm 0.04 in1.0 mm
07:45 AM 69.5°F20.8°C 68.6°F20.3°C 97% Calm Calm -- 30.10 in1019.3 mb - 0.00 in0.0 mm 0.04 in1.0 mm
08:00 AM 69.8°F21.0°C 68.9°F20.5°C 97% Calm Calm -- 30.10 in1019.3 mb - 0.00 in0.0 mm 0.04 in1.0 mm
08:15 AM 70.1°F21.2°C 69.2°F20.7°C 97% Calm Calm -- 30.10 in1019.3 mb - 0.00 in0.0 mm 0.04 in1.0 mm
08:30 AM 70.2°F21.2°C 69.3°F20.7°C 97% Calm Calm -- 30.10 in1019.3 mb - 0.00 in0.0 mm 0.04 in1.0 mm
08:45 AM 70.5°F21.4°C 69.6°F20.9°C 97% Calm Calm -- 30.10 in1019.3 mb - 0.00 in0.0 mm 0.04 in1.0 mm
09:00 AM 70.8°F21.6°C 69.9°F21.1°C 97% Calm Calm -- 30.10 in1019.3 mb - 0.01 in0.3 mm 0.05 in1.3 mm
09:15 AM 71.0°F21.7°C 70.1°F21.2°C 97% Calm Calm -- 30.09 in1019.0 mb - 0.01 in0.3 mm 0.06 in1.5 mm
09:30 AM 71.7°F22.1°C 70.8°F21.6°C 97% Calm Calm -- 30.09 in1019.0 mb - 0.00 in0.0 mm 0.06 in1.5 mm
09:45 AM 72.4°F22.4°C 71.5°F21.9°C 97% 0.1 mph ESE0.2 kmh ESE 1.0 mph1.6 kmh 30.09 in1019.0 mb - 0.00 in0.0 mm 0.06 in1.5 mm
10:00 AM 72.7°F22.6°C 71.8°F22.1°C 97% Calm Calm -- 30.08 in1018.6 mb - 0.00 in0.0 mm 0.06 in1.5 mm
10:15 AM 73.3°F22.9°C 72.4°F22.4°C 97% 0.1 mph ESE0.2 kmh ESE 1.0 mph1.6 kmh 30.09 in1019.0 mb - 0.00 in0.0 mm 0.06 in1.5 mm
10:30 AM 74.7°F23.7°C 74.1°F23.4°C 98% Calm Calm -- 30.08 in1018.6 mb - 0.00 in0.0 mm 0.06 in1.5 mm
10:45 AM 75.4°F24.1°C 74.5°F23.6°C 97% 2.3 mph SE3.7 kmh SE 4.0 mph6.4 kmh 30.08 in1018.6 mb - 0.00 in0.0 mm 0.06 in1.5 mm
11:00 AM 76.2°F24.6°C 75.3°F24.1°C 97% 2.7 mph E4.3 kmh E 5.0 mph8.0 kmh 30.07 in1018.3 mb - 0.00 in0.0 mm 0.06 in1.5 mm
11:15 AM 76.4°F24.7°C 75.5°F24.2°C 97% 2.0 mph SE3.2 kmh SE 5.0 mph8.0 kmh 30.07 in1018.3 mb - 0.00 in0.0 mm 0.06 in1.5 mm
11:30 AM 76.7°F24.8°C 75.5°F24.2°C 96% 1.1 mph ESE1.8 kmh ESE 2.0 mph3.2 kmh 30.07 in1018.3 mb - 0.00 in0.0 mm 0.06 in1.5 mm
11:45 AM 77.2°F25.1°C 75.6°F24.2°C 95% 3.7 mph SE6.0 kmh SE 7.0 mph11.3 kmh 30.06 in1017.9 mb - 0.00 in0.0 mm 0.06 in1.5 mm
12:00 PM 78.0°F25.6°C 76.5°F24.7°C 95% 0.9 mph SE1.4 kmh SE 3.0 mph4.8 kmh 30.06 in1017.9 mb - 0.00 in0.0 mm 0.06 in1.5 mm
12:15 PM 77.9°F25.5°C 76.0°F24.4°C 94% 1.7 mph SE2.7 kmh SE 5.0 mph8.0 kmh 30.05 in1017.6 mb - 0.00 in0.0 mm 0.06 in1.5 mm
12:30 PM 78.2°F25.7°C 76.0°F24.4°C 93% 3.2 mph S5.1 kmh S 9.0 mph14.5 kmh 30.05 in1017.6 mb - 0.00 in0.0 mm 0.06 in1.5 mm
12:45 PM 78.3°F25.7°C 75.8°F24.3°C 92% 1.9 mph ENE3.1 kmh ENE 3.0 mph4.8 kmh 30.05 in1017.6 mb - 0.00 in0.0 mm 0.06 in1.5 mm
01:00 PM 79.2°F26.2°C 76.3°F24.6°C 91% 4.1 mph NE6.6 kmh NE 11.0 mph17.7 kmh 30.04 in1017.3 mb - 0.00 in0.0 mm 0.06 in1.5 mm
01:15 PM 79.7°F26.5°C 76.1°F24.5°C 89% 1.5 mph SE2.4 kmh SE 6.0 mph9.7 kmh 30.03 in1016.9 mb - 0.00 in0.0 mm 0.06 in1.5 mm
01:30 PM 79.6°F26.4°C 76.1°F24.5°C 89% 0.3 mph ESE0.5 kmh ESE 8.0 mph12.9 kmh 30.03 in1016.9 mb - 0.01 in0.3 mm 0.07 in1.8 mm
01:45 PM 80.1°F26.7°C 76.9°F24.9°C 90% 3.4 mph SE5.5 kmh SE 5.0 mph8.0 kmh 30.03 in1016.9 mb - 0.00 in0.0 mm 0.07 in1.8 mm
02:00 PM 81.1°F27.3°C 77.2°F25.1°C 88% 3.6 mph NE5.8 kmh NE 8.0 mph12.9 kmh 30.03 in1016.9 mb - 0.00 in0.0 mm 0.07 in1.8 mm
02:15 PM 81.5°F27.5°C 76.9°F24.9°C 86% 1.8 mph SE2.9 kmh SE 3.0 mph4.8 kmh 30.02 in1016.6 mb - 0.00 in0.0 mm 0.07 in1.8 mm
02:30 PM 82.6°F28.1°C 77.6°F25.3°C 85% 2.1 mph NE3.4 kmh NE 4.0 mph6.4 kmh 30.02 in1016.6 mb - 0.00 in0.0 mm 0.07 in1.8 mm
02:45 PM 82.6°F28.1°C 76.5°F24.7°C 82% 1.6 mph SE2.6 kmh SE 10.0 mph16.1 kmh 30.01 in1016.3 mb - 0.00 in0.0 mm 0.07 in1.8 mm
03:00 PM 82.4°F28.0°C 76.7°F24.8°C 83% 1.7 mph SE2.7 kmh SE 6.0 mph9.7 kmh 30.01 in1016.3 mb - 0.00 in0.0 mm 0.07 in1.8 mm
03:15 PM 82.1°F27.8°C 76.4°F24.7°C 83% 2.4 mph SSE3.9 kmh SSE 3.0 mph4.8 kmh 30.01 in1016.3 mb - 0.00 in0.0 mm 0.07 in1.8 mm
03:30 PM 81.2°F27.3°C 75.9°F24.4°C 84% 1.6 mph S2.6 kmh S 9.0 mph14.5 kmh 30.00 in1015.9 mb - 0.00 in0.0 mm 0.07 in1.8 mm
03:45 PM 80.4°F26.9°C 75.5°F24.2°C 85% 0.3 mph S0.5 kmh S 5.0 mph8.0 kmh 30.03 in1016.9 mb - 0.00 in0.0 mm 0.07 in1.8 mm
04:00 PM 79.8°F26.6°C 75.9°F24.4°C 88% 0.3 mph S0.5 kmh S 3.0 mph4.8 kmh 30.01 in1016.3 mb - 0.01 in0.3 mm 0.08 in2.0 mm
04:15 PM 79.1°F26.2°C 75.9°F24.4°C 90% Calm Calm -- 30.02 in1016.6 mb - 0.03 in0.8 mm 0.11 in2.8 mm
04:30 PM 78.3°F25.7°C 75.8°F24.3°C 92% 2.0 mph S3.2 kmh S 4.0 mph6.4 kmh 30.00 in1015.9 mb - 0.03 in0.8 mm 0.15 in3.8 mm
04:45 PM 78.7°F25.9°C 76.9°F24.9°C 94% 0.1 mph SE0.2 kmh SE 1.0 mph1.6 kmh 30.00 in1015.9 mb - 0.04 in1.0 mm 0.18 in4.6 mm
05:00 PM 79.9°F26.6°C 78.3°F25.7°C 95% 0.2 mph ESE0.3 kmh ESE 1.0 mph1.6 kmh 30.00 in1015.9 mb - 0.04 in1.0 mm 0.21 in5.3 mm
05:15 PM 80.6°F27.0°C 78.7°F25.9°C 94% 0.1 mph SE0.2 kmh SE 3.0 mph4.8 kmh 30.00 in1015.9 mb - 0.03 in0.8 mm 0.23 in5.8 mm
05:30 PM 81.4°F27.4°C 79.2°F26.2°C 93% 0.1 mph E0.2 kmh E 3.0 mph4.8 kmh 30.00 in1015.9 mb - 0.03 in0.8 mm 0.26 in6.6 mm
05:45 PM 81.5°F27.5°C 78.3°F25.7°C 90% 0.3 mph SE0.5 kmh SE 2.0 mph3.2 kmh 30.00 in1015.9 mb - 0.02 in0.5 mm 0.28 in7.1 mm
06:00 PM 81.2°F27.3°C 77.6°F25.3°C 89% 0.8 mph SE1.3 kmh SE 2.0 mph3.2 kmh 30.00 in1015.9 mb - 0.02 in0.5 mm 0.30 in7.6 mm
06:15 PM 80.9°F27.2°C 77.4°F25.2°C 89% 0.8 mph S1.3 kmh S 4.0 mph6.4 kmh 30.00 in1015.9 mb - 0.02 in0.5 mm 0.32 in8.1 mm
06:30 PM 80.5°F26.9°C 76.9°F24.9°C 89% 1.0 mph SSE1.6 kmh SSE 4.0 mph6.4 kmh 30.00 in1015.9 mb - 0.02 in0.5 mm 0.34 in8.6 mm
06:45 PM 79.8°F26.6°C 76.6°F24.8°C 90% Calm Calm -- 30.00 in1015.9 mb - 0.02 in0.5 mm 0.36 in9.1 mm
07:00 PM 79.2°F26.2°C 76.0°F24.4°C 90% Calm Calm 1.0 mph1.6 kmh 30.00 in1015.9 mb - 0.02 in0.5 mm 0.38 in9.7 mm
07:15 PM 78.7°F25.9°C 75.9°F24.4°C 91% Calm Calm 1.0 mph1.6 kmh 30.00 in1015.9 mb - 0.02 in0.5 mm 0.40 in10.2 mm
07:30 PM 78.3°F25.7°C 75.5°F24.2°C 91% 0.4 mph SW0.6 kmh SW -- 30.01 in1016.3 mb - 0.02 in0.5 mm 0.42 in10.7 mm
07:45 PM 77.9°F25.5°C 75.4°F24.1°C 92% 1.3 mph SSE2.1 kmh SSE 4.0 mph6.4 kmh 30.01 in1016.3 mb - 0.02 in0.5 mm 0.44 in11.2 mm
08:00 PM 77.5°F25.3°C 75.0°F23.9°C 92% 1.6 mph ESE2.6 kmh ESE 6.0 mph9.7 kmh 30.01 in1016.3 mb - 0.02 in0.5 mm 0.46 in11.7 mm
08:15 PM 77.2°F25.1°C 74.7°F23.7°C 92% 1.7 mph SSW2.7 kmh SSW 7.0 mph11.3 kmh 30.01 in1016.3 mb - 0.01 in0.3 mm 0.47 in11.9 mm
08:30 PM 76.9°F24.9°C 74.4°F23.6°C 92% 0.2 mph SE0.3 kmh SE 2.0 mph3.2 kmh 30.01 in1016.3 mb - 0.02 in0.5 mm 0.49 in12.4 mm
08:45 PM 76.6°F24.8°C 74.4°F23.6°C 93% Calm Calm -- 30.02 in1016.6 mb - 0.01 in0.3 mm 0.50 in12.7 mm
09:00 PM 76.4°F24.7°C 74.2°F23.4°C 93% 0.3 mph S0.5 kmh S 1.0 mph1.6 kmh 30.02 in1016.6 mb - 0.01 in0.3 mm 0.51 in13.0 mm
09:15 PM 76.3°F24.6°C 74.1°F23.4°C 93% 1.0 mph E1.6 kmh E 2.0 mph3.2 kmh 30.02 in1016.6 mb - 0.02 in0.5 mm 0.53 in13.5 mm
09:30 PM 76.2°F24.6°C 74.0°F23.3°C 93% Calm Calm 1.0 mph1.6 kmh 30.03 in1016.9 mb - 0.00 in0.0 mm 0.53 in13.5 mm
09:45 PM 76.1°F24.5°C 74.2°F23.4°C 94% 0.5 mph SE0.8 kmh SE 2.0 mph3.2 kmh 30.03 in1016.9 mb - 0.01 in0.3 mm 0.54 in13.7 mm
10:00 PM 76.1°F24.5°C 74.2°F23.4°C 94% 0.3 mph S0.5 kmh S 1.0 mph1.6 kmh 30.04 in1017.3 mb - 0.01 in0.3 mm 0.55 in14.0 mm
10:15 PM 76.0°F24.4°C 74.2°F23.4°C 94% Calm Calm -- 30.03 in1016.9 mb - 0.00 in0.0 mm 0.55 in14.0 mm
10:30 PM 75.9°F24.4°C 74.0°F23.3°C 94% Calm Calm -- 30.03 in1016.9 mb - 0.01 in0.3 mm 0.56 in14.2 mm
10:45 PM 75.8°F24.3°C 74.3°F23.5°C 95% Calm Calm -- 30.03 in1016.9 mb - 0.00 in0.0 mm 0.56 in14.2 mm
11:00 PM 75.6°F24.2°C 73.8°F23.2°C 94% Calm Calm -- 30.02 in1016.6 mb - 0.00 in0.0 mm 0.56 in14.2 mm
11:15 PM 75.4°F24.1°C 73.9°F23.3°C 95% Calm Calm 1.0 mph1.6 kmh 30.02 in1016.6 mb - 0.00 in0.0 mm 0.56 in14.2 mm
11:30 PM 75.3°F24.1°C 73.8°F23.2°C 95% 0.1 mph SE0.2 kmh SE 2.0 mph3.2 kmh 30.02 in1016.6 mb - 0.00 in0.0 mm 0.56 in14.2 mm
11:45 PM 75.2°F24.0°C 73.6°F23.1°C 95% Calm Calm -- 30.03 in1016.9 mb - 0.00 in0.0 mm 0.56 in14.2 mm